createdAt,value
2023-02-22T00:00:11.611Z,8.37
2023-02-22T00:01:38.128Z,8.34
2023-02-22T00:03:00.419Z,8.20
2023-02-22T00:04:30.884Z,8.24
2023-02-22T00:06:21.671Z,8.20
2023-02-22T00:07:47.635Z,8.18
2023-02-22T00:09:21.524Z,8.14
2023-02-22T00:10:52.961Z,8.02
2023-02-22T00:12:15.966Z,8.01
2023-02-22T00:13:39.217Z,8.07
2023-02-22T00:15:00.949Z,8.07
2023-02-22T00:16:34.263Z,7.96
2023-02-22T00:17:57.553Z,7.99
2023-02-22T00:19:35.554Z,7.92
2023-02-22T00:21:04.177Z,7.98
2023-02-22T00:22:27.187Z,7.98
2023-02-22T00:23:56.918Z,7.87
2023-02-22T00:25:23.163Z,7.86
2023-02-22T00:26:48.655Z,7.91
2023-02-22T00:29:04.650Z,7.80
2023-02-22T00:31:17.677Z,7.85
2023-02-22T00:33:29.802Z,7.82
2023-02-22T00:35:57.869Z,7.68
2023-02-22T00:47:26.132Z,7.45
2023-02-22T00:50:40.525Z,7.59
2023-02-22T00:50:49.022Z,7.44
2023-02-22T00:52:11.231Z,7.46
2023-02-22T00:53:50.344Z,7.45
2023-02-22T00:58:01.156Z,7.32
2023-02-22T01:02:15.677Z,7.34
2023-02-22T01:03:48.764Z,7.34
2023-02-22T01:05:18.900Z,7.28
2023-02-22T01:06:47.603Z,7.27
2023-02-22T01:08:35.917Z,7.26
2023-02-22T01:10:47.891Z,7.33
2023-02-22T01:13:00.080Z,7.36
2023-02-22T01:14:34.041Z,7.38
2023-02-22T01:16:27.157Z,7.38
2023-02-22T01:18:12.868Z,7.31
2023-02-22T01:19:34.255Z,7.41
2023-02-22T01:21:05.354Z,7.42
2023-02-22T01:22:43.070Z,7.42
2023-02-22T01:28:13.847Z,7.42
2023-02-22T01:35:01.582Z,7.46
2023-02-22T01:36:24.159Z,7.58
2023-02-22T01:37:45.333Z,7.60
2023-02-22T12:26:23.214Z,14.08
2023-02-22T12:27:57.506Z,14.13
2023-02-22T12:29:37.892Z,14.17
2023-02-22T12:31:12.542Z,14.25
2023-02-22T12:32:45.800Z,14.25
2023-02-22T12:34:49.456Z,14.36
2023-02-22T12:36:35.924Z,14.47
2023-02-22T12:38:21.262Z,14.49
2023-02-22T15:09:48.018Z,11.41
2023-02-22T15:11:52.059Z,11.36
2023-02-22T15:13:44.197Z,11.39
2023-02-22T15:18:36.743Z,11.10
2023-02-22T15:27:00.839Z,10.83
2023-02-22T15:29:34.357Z,10.68
2023-02-22T15:34:55.590Z,10.46
2023-02-22T15:55:08.728Z,10.05
2023-02-22T15:56:35.168Z,9.98
2023-02-22T15:58:01.806Z,10.01
2023-02-22T15:59:32.217Z,9.91
2023-02-22T16:01:04.954Z,9.94
2023-02-22T16:02:37.205Z,9.99
2023-02-22T16:04:00.141Z,9.94
2023-02-22T16:05:33.425Z,9.92
2023-02-22T16:07:07.130Z,9.96
2023-02-22T16:08:53.964Z,9.95
2023-02-22T16:10:34.865Z,9.93
2023-02-22T16:12:12.676Z,9.90
2023-02-22T16:13:37.264Z,9.88
2023-02-22T16:15:00.704Z,9.93
2023-02-22T16:16:27.755Z,9.87
2023-02-22T16:18:01.682Z,9.92
2023-02-22T16:19:40.747Z,9.91
2023-02-22T16:21:13.218Z,9.92
2023-02-22T16:22:49.504Z,9.90
2023-02-22T16:24:44.415Z,9.88
2023-02-22T16:26:26.048Z,9.89
2023-02-22T16:28:00.267Z,9.79
2023-02-22T16:29:30.055Z,9.87
2023-02-22T16:30:57.993Z,9.83
2023-02-22T16:32:37.977Z,9.83
2023-02-22T16:34:05.047Z,9.74
2023-02-22T16:35:29.869Z,9.77
2023-02-22T16:36:53.101Z,9.78
2023-02-22T16:38:51.594Z,9.78
2023-02-22T16:41:12.774Z,9.76
2023-02-22T16:42:35.481Z,9.70
2023-02-22T16:43:58.124Z,9.75
2023-02-22T16:45:36.988Z,9.74
2023-02-22T16:47:12.961Z,9.73
2023-02-22T16:48:38.571Z,9.71
2023-02-22T16:50:04.391Z,9.73
2023-02-22T16:51:31.212Z,9.69
2023-02-22T16:52:59.842Z,9.72
2023-02-22T16:54:27.187Z,9.66
2023-02-22T16:56:03.897Z,9.73
2023-02-22T16:57:29.216Z,9.72
2023-02-22T16:58:54.976Z,9.72
2023-02-22T17:00:31.461Z,9.72
2023-02-22T17:01:55.425Z,9.74
2023-02-22T17:03:20.599Z,9.70
2023-02-22T17:04:49.924Z,9.75
2023-02-22T17:06:21.950Z,9.70
2023-02-22T17:07:44.874Z,9.66
2023-02-22T17:09:09.611Z,9.63
2023-02-22T17:10:32.581Z,9.65
2023-02-22T17:12:04.074Z,9.62
2023-02-22T17:13:33.033Z,9.65
2023-02-22T17:14:55.280Z,9.63
2023-02-22T17:16:18.099Z,9.63
2023-02-22T17:17:41.011Z,9.61
2023-02-22T17:19:05.038Z,9.53
2023-02-22T17:20:31.568Z,9.56
2023-02-22T17:21:53.849Z,9.59
2023-02-22T17:23:17.490Z,9.57
2023-02-22T17:24:42.656Z,9.51
2023-02-22T17:26:05.424Z,9.57
2023-02-22T17:27:29.268Z,9.57
2023-02-22T17:28:54.193Z,9.55
2023-02-22T17:30:30.408Z,9.53
2023-02-22T17:31:58.742Z,9.54
2023-02-22T17:33:27.461Z,9.47
2023-02-22T17:34:52.403Z,9.52
2023-02-22T17:36:28.792Z,9.44
2023-02-22T17:37:54.477Z,9.53
2023-02-22T17:39:28.732Z,9.53
2023-02-22T17:40:55.748Z,9.52
2023-02-22T17:42:18.547Z,9.51
2023-02-22T17:43:44.316Z,9.42
2023-02-22T17:45:06.198Z,9.48
2023-02-22T17:46:29.066Z,9.43
2023-02-22T17:48:03.339Z,9.49
2023-02-22T17:49:36.793Z,9.50
2023-02-22T17:51:05.977Z,9.47
2023-02-22T17:52:33.469Z,9.38
2023-02-22T17:53:57.822Z,9.42
2023-02-22T17:55:23.319Z,9.41
2023-02-22T17:56:51.602Z,9.35
2023-02-22T17:58:20.090Z,9.42
2023-02-22T17:59:48.317Z,9.41
2023-02-22T18:01:35.210Z,9.38
2023-02-22T18:03:01.166Z,9.33
2023-02-22T18:04:23.880Z,9.30
2023-02-22T18:05:51.012Z,9.38
2023-02-22T18:07:25.374Z,9.38
2023-02-22T18:08:59.224Z,9.27
2023-02-22T18:10:27.095Z,9.35
2023-02-22T18:11:51.214Z,9.34
2023-02-22T18:13:40.345Z,9.36
2023-02-22T18:15:22.517Z,9.26
2023-02-22T18:17:02.644Z,9.27
2023-02-22T18:18:36.327Z,9.29
2023-02-22T18:19:59.613Z,9.29
2023-02-22T18:21:27.020Z,9.26
2023-02-22T18:24:34.854Z,9.25
2023-02-22T18:26:10.823Z,9.23
2023-02-22T18:27:46.422Z,9.21
2023-02-22T18:29:12.569Z,9.13
2023-02-22T18:30:37.959Z,9.13
2023-02-22T18:32:21.229Z,9.05
2023-02-22T18:34:49.067Z,9.10
2023-02-22T18:36:23.156Z,9.00
2023-02-22T18:37:46.095Z,9.02
2023-02-22T18:39:19.926Z,8.99
2023-02-22T18:40:51.566Z,8.90
2023-02-22T18:42:15.533Z,8.89
2023-02-22T18:43:38.716Z,8.88
2023-02-22T18:45:05.592Z,8.86
2023-02-22T18:46:33.322Z,8.82
2023-02-22T18:48:05.641Z,8.79
2023-02-22T18:49:33.916Z,8.71
2023-02-22T18:51:39.552Z,8.65
2023-02-22T18:53:18.881Z,8.66
2023-02-22T18:54:42.955Z,8.63
2023-02-22T18:56:16.868Z,8.55
2023-02-22T18:57:45.942Z,8.56
2023-02-22T18:59:13.746Z,8.52
2023-02-22T19:00:38.411Z,8.45
2023-02-22T19:02:07.496Z,8.49
2023-02-22T19:03:32.613Z,8.48
2023-02-22T19:04:57.789Z,8.44
2023-02-22T19:06:30.884Z,8.36
2023-02-22T19:08:05.452Z,8.37
2023-02-22T19:09:31.898Z,8.39
2023-02-22T19:10:55.192Z,8.29
2023-02-22T19:12:46.749Z,8.36
2023-02-22T19:14:11.417Z,8.26
2023-02-22T19:15:34.597Z,8.31
2023-02-22T19:17:02.645Z,8.20
2023-02-22T19:18:26.741Z,8.28
2023-02-22T19:19:49.856Z,8.20
2023-02-22T19:21:16.343Z,8.19
2023-02-22T19:24:05.172Z,8.12
2023-02-22T19:27:55.348Z,7.96
2023-02-22T19:29:53.760Z,7.99
2023-02-22T19:31:22.279Z,7.85
2023-02-22T19:32:54.425Z,7.87
2023-02-22T19:34:25.210Z,7.83
2023-02-22T19:36:23.513Z,7.79
2023-02-22T19:38:17.134Z,7.69
2023-02-22T19:39:42.500Z,7.57
2023-02-22T19:41:28.954Z,7.50
2023-02-22T19:44:54.776Z,7.45
2023-02-22T19:46:34.723Z,7.38
2023-02-22T19:48:33.347Z,7.33
2023-02-22T19:50:11.629Z,7.21
2023-02-22T19:52:01.277Z,7.21
2023-02-22T19:53:27.979Z,7.22
2023-02-22T19:54:54.247Z,7.19
2023-02-22T19:56:31.449Z,7.14
2023-02-22T19:57:59.639Z,7.11
2023-02-22T19:59:42.416Z,7.06
2023-02-22T20:01:13.716Z,7.07
2023-02-22T20:02:39.635Z,6.99
2023-02-22T20:04:04.149Z,7.01
2023-02-22T20:05:30.801Z,7.02
2023-02-22T20:06:57.768Z,7.02
2023-02-22T20:08:21.883Z,6.99
2023-02-22T20:09:46.786Z,6.92
2023-02-22T20:11:13.294Z,6.88
2023-02-22T20:13:19.466Z,6.92
2023-02-22T20:14:43.401Z,6.85
2023-02-22T20:16:10.126Z,6.85
2023-02-22T20:17:41.787Z,6.76
2023-02-22T20:19:12.124Z,6.79
2023-02-22T20:20:38.206Z,6.81
2023-02-22T20:22:03.142Z,6.75
2023-02-22T20:23:28.396Z,6.78
2023-02-22T20:25:19.644Z,6.73
2023-02-22T20:26:50.966Z,6.64
2023-02-22T20:28:56.810Z,6.62
2023-02-22T20:30:19.846Z,6.64
2023-02-22T20:31:54.426Z,6.58
2023-02-22T20:33:26.166Z,6.62
2023-02-22T20:34:51.187Z,6.58
2023-02-22T20:36:48.742Z,6.50
2023-02-22T20:38:19.463Z,6.59
2023-02-22T20:39:45.040Z,6.60
2023-02-22T20:41:27.381Z,6.59
2023-02-22T20:43:16.976Z,6.55
2023-02-22T20:44:43.022Z,6.55
2023-02-22T20:46:08.251Z,6.56
2023-02-22T20:47:31.747Z,6.63
2023-02-22T20:49:22.364Z,6.67
2023-02-22T20:50:52.136Z,6.69
2023-02-22T20:52:24.378Z,6.65
2023-02-22T20:53:48.164Z,6.73
2023-02-22T20:55:38.728Z,6.65
2023-02-22T20:57:11.565Z,6.68
2023-02-22T20:58:36.129Z,6.66
2023-02-22T21:00:22.815Z,6.65
2023-02-22T21:02:06.739Z,6.64
2023-02-22T21:03:36.802Z,6.63
2023-02-22T21:05:06.141Z,6.68
2023-02-22T21:06:39.171Z,6.65
2023-02-22T21:08:05.021Z,6.66
2023-02-22T21:09:26.425Z,6.67
2023-02-22T21:10:50.228Z,6.69
2023-02-22T21:12:15.610Z,6.66
2023-02-22T21:13:37.166Z,6.60
2023-02-22T21:16:49.319Z,6.58
2023-02-22T21:18:12.684Z,6.65
2023-02-22T21:19:39.581Z,6.62
2023-02-22T21:21:10.585Z,6.62
2023-02-22T21:22:38.339Z,6.66
2023-02-22T21:24:18.199Z,6.58
2023-02-22T21:25:52.200Z,6.66
2023-02-22T21:27:30.891Z,6.57
2023-02-22T21:29:24.703Z,6.61
2023-02-22T21:31:51.201Z,6.58
2023-02-22T21:33:17.132Z,6.59
2023-02-22T21:34:45.033Z,6.64
2023-02-22T21:36:11.463Z,6.60
2023-02-22T21:37:37.132Z,6.55
2023-02-22T21:39:18.143Z,6.60
2023-02-22T21:40:44.766Z,6.61
2023-02-22T21:42:08.386Z,6.61
2023-02-22T21:43:29.633Z,6.61
2023-02-22T21:44:56.432Z,6.57
2023-02-22T21:46:21.591Z,6.49
2023-02-22T21:47:45.728Z,6.52
2023-02-22T21:49:08.958Z,6.55
2023-02-22T21:50:31.817Z,6.56
2023-02-22T21:51:54.332Z,6.58
2023-02-22T21:53:18.770Z,6.59
2023-02-22T21:54:55.427Z,6.58
2023-02-22T21:56:37.972Z,6.51
2023-02-22T21:58:23.754Z,6.56
2023-02-22T21:59:48.748Z,6.50
2023-02-22T22:01:17.991Z,6.48
2023-02-22T22:02:41.204Z,6.52
2023-02-22T22:04:09.822Z,6.52
2023-02-22T22:05:34.270Z,6.45
2023-02-22T22:06:58.282Z,6.53
2023-02-22T22:08:21.028Z,6.51
2023-02-22T22:09:45.736Z,6.52
2023-02-22T22:11:11.385Z,6.52
2023-02-22T22:12:40.134Z,6.45
2023-02-22T22:14:03.804Z,6.50
2023-02-22T22:15:36.991Z,6.47
2023-02-22T22:17:01.197Z,6.45
2023-02-22T22:18:22.402Z,6.45
2023-02-22T22:19:46.941Z,6.40
2023-02-22T22:21:18.524Z,6.37
2023-02-22T22:23:00.750Z,6.32
2023-02-22T22:24:26.235Z,6.36
2023-02-22T22:25:51.496Z,6.34
2023-02-22T22:27:16.560Z,6.33
2023-02-22T22:28:42.628Z,6.26
2023-02-22T22:30:06.046Z,6.28
2023-02-22T22:31:29.509Z,6.22
2023-02-22T22:32:55.429Z,6.23
2023-02-22T22:34:18.020Z,6.20
2023-02-22T22:35:42.330Z,6.13
2023-02-22T22:37:05.024Z,6.14
2023-02-22T22:38:26.885Z,6.11
2023-02-22T22:39:49.648Z,6.07
2023-02-22T22:41:14.549Z,5.97
2023-02-22T22:42:38.714Z,5.98
2023-02-22T22:44:01.305Z,5.88
2023-02-22T22:45:23.085Z,5.89
2023-02-22T22:47:05.112Z,5.89
2023-02-22T22:48:31.722Z,5.78
2023-02-22T22:50:01.658Z,5.78
2023-02-22T22:51:27.676Z,5.78
2023-02-22T22:52:58.836Z,5.63
2023-02-22T22:54:22.428Z,5.62
2023-02-22T22:55:45.135Z,5.66
2023-02-22T22:57:09.198Z,5.60
2023-02-22T22:58:42.200Z,5.57
2023-02-22T23:02:14.426Z,5.47
2023-02-22T23:03:39.748Z,5.49
2023-02-22T23:05:02.680Z,5.42
2023-02-22T23:08:43.552Z,5.29
2023-02-22T23:10:08.686Z,5.37
2023-02-22T23:11:37.962Z,5.36
2023-02-22T23:12:59.762Z,5.27
2023-02-22T23:14:26.132Z,5.30
2023-02-22T23:15:48.233Z,5.23
2023-02-22T23:17:15.677Z,5.27
2023-02-22T23:18:43.724Z,5.16
2023-02-22T23:20:12.615Z,5.23
2023-02-22T23:21:38.596Z,5.22
2023-02-22T23:23:06.794Z,5.19
2023-02-22T23:24:31.812Z,5.16
2023-02-22T23:26:11.829Z,5.17
2023-02-22T23:27:35.265Z,5.04
2023-02-22T23:29:03.902Z,5.13
2023-02-22T23:30:38.795Z,5.11
2023-02-22T23:34:16.757Z,5.06
2023-02-22T23:35:42.711Z,4.98
2023-02-22T23:37:10.106Z,4.97
2023-02-22T23:38:36.761Z,4.99
2023-02-22T23:40:07.705Z,4.92
2023-02-22T23:41:35.818Z,4.94
2023-02-22T23:43:04.533Z,4.87
2023-02-22T23:44:46.492Z,4.89
2023-02-22T23:46:36.824Z,4.83
2023-02-22T23:48:03.359Z,4.92
2023-02-22T23:49:38.921Z,4.81
2023-02-22T23:51:14.600Z,4.90
2023-02-22T23:52:47.926Z,4.87
2023-02-22T23:54:37.106Z,4.75
2023-02-22T23:56:22.554Z,4.73
2023-02-22T23:58:23.610Z,4.82
2023-02-22T23:59:51.661Z,4.74
